Terminal Aerodrome Forecast
Issued by NWS

Home | Current Version | Previous Version | Text Only | Print | Product List | Glossary On
Versions: 1 2 3 4 5 6 7 8 9 10 11 12 13 14 15 16 17 18 19 20 21 22 23 24
000
FTUS43 KGRB 112335
TAFCWA
TAF
KCWA 112335Z 1200/1224 33014G21KT P6SM -SHSN OVC015
     FM120500 33014G22KT P6SM -SHSN BKN022
     FM120700 32012G19KT P6SM BKN027
     FM121100 31010G17KT P6SM SCT110
     FM121400 31010G17KT P6SM SCT250
     FM122300 31008KT P6SM SCT080
      AMD LTD TO CLD VIS AND WIND 1204/1212=

USA.gov is the U.S. government's official web portal to all federal, state and local government web resources and services.